createdAt,value
2023-01-04T00:01:16.989Z,21.10
2023-01-04T00:03:44.756Z,30.92
2023-01-04T00:06:14.600Z,11.60
2023-01-04T00:08:42.529Z,14.80
2023-01-04T00:11:18.803Z,10.07
2023-01-04T00:13:47.250Z,7.10
2023-01-04T00:16:17.645Z,13.15
2023-01-04T00:18:45.406Z,29.42
2023-01-04T00:21:27.915Z,19.98
2023-01-04T00:23:58.281Z,13.93
2023-01-04T00:26:28.678Z,10.60
2023-01-04T00:29:00.252Z,7.00
2023-01-04T00:31:28.926Z,11.35
2023-01-04T00:33:58.751Z,17.63
2023-01-04T00:36:27.364Z,16.25
2023-01-04T00:39:08.218Z,11.88
2023-01-04T00:42:08.007Z,8.68
2023-01-04T00:44:35.923Z,3.08
2023-01-04T00:47:04.696Z,8.68
2023-01-04T00:49:32.881Z,17.95
2023-01-04T00:52:00.691Z,5.75
2023-01-04T00:54:28.275Z,7.10
2023-01-04T00:56:55.538Z,6.13
2023-01-04T00:59:23.194Z,7.90
2023-01-04T01:01:51.768Z,8.77
2023-01-04T01:04:22.154Z,4.88
2023-01-04T01:06:50.108Z,11.43
2023-01-04T01:09:17.589Z,8.68
2023-01-04T01:11:45.260Z,16.92
2023-01-04T01:14:21.609Z,12.90
2023-01-04T01:16:58.526Z,10.97
2023-01-04T01:21:57.862Z,14.90
2023-01-04T01:24:26.517Z,20.05
2023-01-04T01:26:54.823Z,8.32
2023-01-04T01:29:22.267Z,5.60
2023-01-04T01:31:49.702Z,14.13
2023-01-04T01:34:17.037Z,22.90
2023-01-04T01:36:44.380Z,17.27
2023-01-04T01:39:11.751Z,9.73
2023-01-04T01:41:39.495Z,21.10
2023-01-04T01:44:12.861Z,18.00
2023-01-04T01:46:43.156Z,15.90
2023-01-04T01:49:21.201Z,7.05
2023-01-04T01:51:48.573Z,22.48
2023-01-04T01:54:26.689Z,17.02
2023-01-04T01:56:57.918Z,12.55
2023-01-04T01:59:27.699Z,16.45
2023-01-04T02:01:55.055Z,17.42
2023-01-04T02:04:22.413Z,12.85
2023-01-04T02:06:53.166Z,18.17
2023-01-04T02:09:22.949Z,39.65
2023-01-04T02:11:50.234Z,18.17
2023-01-04T02:14:28.316Z,26.25
2023-01-04T02:17:32.337Z,24.83
2023-01-04T02:20:11.773Z,23.27
2023-01-04T02:22:48.178Z,16.25
2023-01-04T02:25:33.925Z,30.57
2023-01-04T02:28:32.064Z,20.33
2023-01-04T02:31:27.212Z,31.52
2023-01-04T02:33:57.349Z,15.98
2023-01-04T02:36:42.514Z,35.45
2023-01-04T02:39:47.844Z,19.95
2023-01-04T02:42:18.085Z,14.05
2023-01-04T02:45:01.331Z,18.17
2023-01-04T02:47:57.740Z,14.93
2023-01-04T02:50:31.491Z,32.30
2023-01-04T02:53:12.844Z,23.83
2023-01-04T02:55:58.495Z,17.05
2023-01-04T02:58:36.193Z,6.40
2023-01-04T03:01:47.168Z,10.02
2023-01-04T03:04:51.142Z,17.35
2023-01-04T03:07:24.059Z,18.33
2023-01-04T03:09:57.619Z,27.65
2023-01-04T03:12:33.931Z,14.90
2023-01-04T03:15:28.031Z,17.73
2023-01-04T03:18:19.476Z,24.92
2023-01-04T03:20:48.434Z,20.55
2023-01-04T03:23:37.837Z,16.08
2023-01-04T03:26:31.486Z,19.58
2023-01-04T03:29:26.130Z,15.25
2023-01-04T03:32:17.920Z,18.83
2023-01-04T03:35:03.684Z,9.82
2023-01-04T03:37:38.751Z,31.38
2023-01-04T03:40:45.498Z,15.57
2023-01-04T03:43:46.292Z,15.13
2023-01-04T03:46:39.083Z,17.60
2023-01-04T03:49:17.693Z,8.57
2023-01-04T03:51:46.413Z,12.80
2023-01-04T03:54:19.616Z,12.60
2023-01-04T03:56:48.627Z,10.27
2023-01-04T03:59:16.199Z,18.40
2023-01-04T04:01:45.114Z,9.75
2023-01-04T04:04:31.041Z,13.35
2023-01-04T04:07:16.853Z,11.32
2023-01-04T04:09:44.151Z,2.90
2023-01-04T04:12:11.473Z,5.68
2023-01-04T04:14:38.729Z,9.13
2023-01-04T04:17:05.962Z,7.75
2023-01-04T04:19:33.185Z,7.90
2023-01-04T04:22:00.479Z,2.92
2023-01-04T04:24:28.152Z,4.18
2023-01-04T04:26:56.119Z,8.55
2023-01-04T04:29:24.476Z,3.97
2023-01-04T04:31:52.086Z,5.15
2023-01-04T04:34:19.475Z,10.77
2023-01-04T04:36:47.046Z,3.55
2023-01-04T04:39:14.459Z,9.52
2023-01-04T04:41:42.069Z,1.23
2023-01-04T04:44:12.331Z,2.42
2023-01-04T04:46:40.246Z,7.38
2023-01-04T04:49:08.543Z,9.07
2023-01-04T04:51:36.247Z,3.75
2023-01-04T04:54:04.382Z,7.05
2023-01-04T04:56:31.711Z,5.38
2023-01-04T04:58:58.942Z,9.65
2023-01-04T05:01:26.279Z,10.02
2023-01-04T05:03:53.660Z,6.38
2023-01-04T05:06:20.888Z,5.97
2023-01-04T05:08:48.144Z,2.25
2023-01-04T05:11:15.478Z,12.25
2023-01-04T05:13:42.757Z,8.30
2023-01-04T05:16:10.180Z,8.05
2023-01-04T05:18:37.553Z,8.80
2023-01-04T05:21:04.909Z,8.10
2023-01-04T05:23:32.264Z,11.23
2023-01-04T05:26:01.849Z,7.03
2023-01-04T05:28:29.151Z,9.05
2023-01-04T05:30:57.190Z,12.95
2023-01-04T05:33:27.749Z,9.52
2023-01-04T05:35:57.026Z,8.23
2023-01-04T05:38:24.555Z,11.63
2023-01-04T05:40:52.538Z,9.48
2023-01-04T05:43:21.098Z,9.95
2023-01-04T05:45:53.867Z,14.57
2023-01-04T05:48:22.587Z,5.25
2023-01-04T05:50:49.944Z,23.15
2023-01-04T05:53:18.274Z,14.32
2023-01-04T05:55:48.516Z,11.85
2023-01-04T05:58:16.006Z,15.77
2023-01-04T06:00:43.357Z,16.70
2023-01-04T06:03:10.815Z,17.02
2023-01-04T06:05:38.227Z,9.27
2023-01-04T06:08:05.941Z,7.88
2023-01-04T06:10:33.271Z,6.55
2023-01-04T06:13:00.658Z,11.30
2023-01-04T06:15:27.934Z,15.10
2023-01-04T06:17:55.251Z,19.63
2023-01-04T06:20:22.822Z,19.90
2023-01-04T06:22:50.087Z,13.65
2023-01-04T06:25:17.561Z,16.05
2023-01-04T06:27:44.860Z,12.02
2023-01-04T06:30:12.145Z,13.52
2023-01-04T06:32:39.841Z,23.58
2023-01-04T06:35:07.274Z,12.75
2023-01-04T06:37:35.611Z,15.35
2023-01-04T06:40:03.441Z,19.42
2023-01-04T06:42:45.857Z,14.38
2023-01-04T06:45:15.276Z,12.32
2023-01-04T06:48:12.164Z,3.03
2023-01-04T06:50:46.156Z,9.77
2023-01-04T06:53:13.701Z,13.77
2023-01-04T06:55:44.632Z,10.50
2023-01-04T06:58:17.414Z,13.02
2023-01-04T07:00:46.309Z,13.35
2023-01-04T07:03:16.230Z,24.48
2023-01-04T07:05:44.687Z,12.82
2023-01-04T07:08:15.276Z,6.82
2023-01-04T07:10:42.881Z,8.98
2023-01-04T07:13:10.870Z,22.70
2023-01-04T07:15:40.970Z,12.13
2023-01-04T07:18:10.195Z,11.68
2023-01-04T07:20:38.900Z,9.43
2023-01-04T07:23:07.589Z,6.30
2023-01-04T07:25:35.241Z,11.13
2023-01-04T07:28:03.142Z,21.58
2023-01-04T07:30:30.830Z,7.07
2023-01-04T07:32:58.873Z,8.63
2023-01-04T07:35:29.740Z,7.43
2023-01-04T07:38:00.949Z,10.48
2023-01-04T07:40:28.800Z,7.93
2023-01-04T07:42:58.703Z,15.73
2023-01-04T07:45:27.005Z,3.53
2023-01-04T07:50:57.342Z,18.48
2023-01-04T07:53:24.971Z,13.73
2023-01-04T07:56:02.429Z,5.50
2023-01-04T08:01:14.028Z,8.52
2023-01-04T08:03:41.801Z,14.65
2023-01-04T08:06:11.413Z,7.03
2023-01-04T08:08:39.191Z,5.45
2023-01-04T08:11:09.141Z,8.45
2023-01-04T08:13:36.418Z,4.45
2023-01-04T08:16:04.539Z,8.48
2023-01-04T08:18:31.825Z,7.50
2023-01-04T08:21:09.219Z,6.10
2023-01-04T08:23:37.321Z,12.80
2023-01-04T08:26:13.374Z,3.60
2023-01-04T08:28:41.510Z,20.55
2023-01-04T08:31:16.684Z,6.05
2023-01-04T08:33:45.047Z,13.68
2023-01-04T08:36:27.049Z,27.95
2023-01-04T08:39:00.928Z,9.02
2023-01-04T08:41:56.803Z,9.27
2023-01-04T08:44:25.195Z,11.10
2023-01-04T08:46:53.961Z,7.80
2023-01-04T08:49:22.740Z,12.55
2023-01-04T08:51:50.164Z,11.95
2023-01-04T08:54:18.052Z,5.47
2023-01-04T08:56:45.379Z,3.38
2023-01-04T08:59:14.022Z,13.98
2023-01-04T09:01:42.058Z,7.05
2023-01-04T09:04:09.995Z,12.00
2023-01-04T09:06:38.359Z,4.05
2023-01-04T09:09:30.107Z,19.23
2023-01-04T09:15:27.188Z,11.15
2023-01-04T09:18:33.549Z,8.00
2023-01-04T09:24:54.107Z,14.65
2023-01-04T09:27:22.952Z,3.53
2023-01-04T09:29:59.203Z,4.43
2023-01-04T09:32:27.134Z,15.52
2023-01-04T09:35:03.058Z,8.32
2023-01-04T09:37:42.787Z,19.95
2023-01-04T09:40:20.943Z,18.40
2023-01-04T09:42:51.055Z,8.50
2023-01-04T09:45:38.931Z,9.18
2023-01-04T09:48:26.214Z,17.13
2023-01-04T09:51:05.758Z,13.68
2023-01-04T09:53:43.042Z,15.27
2023-01-04T09:58:47.266Z,6.85
2023-01-04T10:01:27.569Z,21.08
2023-01-04T10:04:42.205Z,20.98
2023-01-04T10:07:27.854Z,14.38
2023-01-04T10:09:56.468Z,16.30
2023-01-04T10:12:33.188Z,5.80
2023-01-04T10:15:27.020Z,18.63
2023-01-04T10:19:51.012Z,13.88
2023-01-04T10:21:33.367Z,9.90
2023-01-04T10:24:43.186Z,13.38
2023-01-04T10:30:11.217Z,29.42
2023-01-04T10:33:17.325Z,22.88
2023-01-04T10:35:48.089Z,9.98
2023-01-04T10:38:36.547Z,16.73
2023-01-04T10:41:11.279Z,37.05
2023-01-04T10:44:10.913Z,19.30
2023-01-04T10:49:51.788Z,23.45
2023-01-04T10:52:51.853Z,6.55
2023-01-04T10:55:37.185Z,8.77
2023-01-04T10:58:33.338Z,23.80
2023-01-04T11:01:31.916Z,18.15
2023-01-04T11:04:12.827Z,21.50
2023-01-04T11:06:47.195Z,11.30
2023-01-04T11:09:25.476Z,17.83
2023-01-04T11:11:56.990Z,22.17
2023-01-04T11:14:25.717Z,17.17
2023-01-04T11:16:59.260Z,15.98
2023-01-04T11:19:28.721Z,18.05
2023-01-04T11:22:06.130Z,20.98
2023-01-04T11:24:48.499Z,17.55
2023-01-04T11:27:27.216Z,10.70
2023-01-04T11:29:58.303Z,24.52
2023-01-04T11:32:56.237Z,8.82
2023-01-04T11:35:48.272Z,23.92
2023-01-04T11:38:33.013Z,6.57
2023-01-04T11:41:02.875Z,8.73
2023-01-04T11:43:39.357Z,33.28
2023-01-04T11:46:41.900Z,10.83
2023-01-04T11:49:20.248Z,8.50
2023-01-04T11:51:47.656Z,25.73
2023-01-04T11:54:21.032Z,15.77
2023-01-04T11:57:12.220Z,24.60
2023-01-04T11:59:42.124Z,25.42
2023-01-04T12:05:30.094Z,17.67
2023-01-04T12:07:59.219Z,22.27
2023-01-04T12:10:30.116Z,15.98
2023-01-04T12:13:01.276Z,17.20
2023-01-04T12:16:33.219Z,10.23
2023-01-04T12:19:27.852Z,23.10
2023-01-04T12:22:02.020Z,14.70
2023-01-04T12:24:39.285Z,16.08
2023-01-04T12:27:32.053Z,28.55
2023-01-04T12:30:44.849Z,14.88
2023-01-04T12:33:33.657Z,24.73
2023-01-04T12:36:14.982Z,15.15
2023-01-04T12:38:55.009Z,14.57
2023-01-04T12:42:00.680Z,36.60
2023-01-04T12:45:00.916Z,16.60
2023-01-04T12:47:47.732Z,22.25
2023-01-04T12:50:25.355Z,28.92
2023-01-04T12:53:11.182Z,31.25
2023-01-04T12:55:44.126Z,20.25
2023-01-04T13:01:28.777Z,23.33
2023-01-04T13:04:21.046Z,22.30
2023-01-04T13:06:52.144Z,29.63
2023-01-04T13:09:25.025Z,23.15
2023-01-04T13:12:09.198Z,26.45
2023-01-04T13:14:46.599Z,20.13
2023-01-04T13:17:26.136Z,14.93
2023-01-04T13:19:54.694Z,34.88
2023-01-04T13:22:34.143Z,23.30
2023-01-04T13:25:11.582Z,34.20
2023-01-04T13:27:39.131Z,36.35
2023-01-04T13:30:30.371Z,27.13
2023-01-04T13:33:24.771Z,16.80
2023-01-04T13:36:00.513Z,16.73
2023-01-04T13:38:28.242Z,15.40
2023-01-04T13:40:55.588Z,24.98
2023-01-04T13:44:10.404Z,19.85
2023-01-04T13:46:45.004Z,20.60
2023-01-04T13:49:23.153Z,21.02
2023-01-04T13:52:01.118Z,26.10
2023-01-04T13:54:39.050Z,27.52
2023-01-04T13:57:10.150Z,27.25
2023-01-04T13:59:38.143Z,22.05
2023-01-04T14:02:20.554Z,36.70
2023-01-04T14:05:00.034Z,20.50
2023-01-04T14:07:30.250Z,33.15
2023-01-04T14:10:00.212Z,47.67
2023-01-04T14:12:32.078Z,38.28
2023-01-04T14:15:41.419Z,20.75
2023-01-04T14:18:30.274Z,40.15
2023-01-04T14:20:57.808Z,25.27
2023-01-04T14:23:34.328Z,32.97
2023-01-04T14:26:01.874Z,25.52
2023-01-04T14:28:33.820Z,24.17
2023-01-04T14:31:01.432Z,33.22
2023-01-04T14:33:48.187Z,27.52
2023-01-04T14:36:28.996Z,15.13
2023-01-04T14:39:06.268Z,36.10
2023-01-04T14:44:16.740Z,30.38
2023-01-04T14:46:48.786Z,32.72
2023-01-04T14:49:22.130Z,38.75
2023-01-04T14:52:00.854Z,15.57
2023-01-04T14:54:29.811Z,38.90
2023-01-04T14:57:06.658Z,26.17
2023-01-04T14:59:51.241Z,32.05
2023-01-04T15:02:19.387Z,23.83
2023-01-04T15:04:49.824Z,18.58
2023-01-04T15:07:40.469Z,28.33
2023-01-04T15:10:26.784Z,33.47
2023-01-04T15:12:55.984Z,34.70
2023-01-04T15:15:23.737Z,12.23
2023-01-04T15:17:57.033Z,36.63
2023-01-04T15:20:28.060Z,26.02
2023-01-04T15:22:58.630Z,28.15
2023-01-04T15:28:34.727Z,25.40
2023-01-04T15:31:22.365Z,20.95
2023-01-04T15:33:56.429Z,22.75
2023-01-04T15:36:33.246Z,43.15
2023-01-04T15:39:04.242Z,19.65
2023-01-04T15:42:02.890Z,12.63
2023-01-04T15:44:45.243Z,16.52
2023-01-04T15:47:23.723Z,13.55
2023-01-04T15:49:56.421Z,19.83
2023-01-04T15:52:23.832Z,19.35
2023-01-04T15:54:51.373Z,25.95
2023-01-04T15:57:18.797Z,23.00
2023-01-04T15:59:59.851Z,41.97
2023-01-04T16:02:27.453Z,31.10
2023-01-04T16:05:09.095Z,16.77
2023-01-04T16:07:36.778Z,30.15
2023-01-04T16:10:04.857Z,25.23
2023-01-04T16:12:53.038Z,20.42
2023-01-04T16:15:23.959Z,25.77
2023-01-04T16:17:51.311Z,16.08
2023-01-04T16:20:19.092Z,23.80
2023-01-04T16:22:46.587Z,43.45
2023-01-04T16:25:14.350Z,36.55
2023-01-04T16:27:41.905Z,29.88
2023-01-04T16:30:13.508Z,39.58
2023-01-04T16:32:43.286Z,27.35
2023-01-04T16:35:11.699Z,27.52
2023-01-04T16:37:39.393Z,18.95
2023-01-04T16:40:08.993Z,32.58
2023-01-04T16:42:37.878Z,39.38
2023-01-04T16:45:15.469Z,33.20
2023-01-04T16:48:16.581Z,21.23
2023-01-04T16:50:52.934Z,31.67
2023-01-04T16:53:22.499Z,49.60
2023-01-04T16:55:55.514Z,36.70
2023-01-04T16:58:30.814Z,29.95
2023-01-04T17:01:35.435Z,45.90
2023-01-04T17:04:10.514Z,54.92
2023-01-04T17:06:44.928Z,27.55
2023-01-04T17:09:19.943Z,43.83
2023-01-04T17:12:46.276Z,32.03
2023-01-04T17:14:49.173Z,31.25
2023-01-04T17:17:35.383Z,27.60
2023-01-04T17:20:09.020Z,40.20
2023-01-04T17:22:36.885Z,30.30
2023-01-04T17:25:04.828Z,22.65
2023-01-04T17:27:44.597Z,14.98
2023-01-04T17:30:12.621Z,14.35
2023-01-04T17:32:40.334Z,27.10
2023-01-04T17:35:32.532Z,29.00
2023-01-04T17:38:00.470Z,36.95
2023-01-04T17:40:37.197Z,31.75
2023-01-04T17:43:10.242Z,33.47
2023-01-04T17:45:43.894Z,33.45
2023-01-04T17:48:35.404Z,24.55
2023-01-04T17:51:20.333Z,29.55
2023-01-04T17:53:48.681Z,27.67
2023-01-04T17:56:18.434Z,28.27
2023-01-04T17:58:47.275Z,43.40
2023-01-04T18:01:23.059Z,24.35
2023-01-04T18:03:56.647Z,33.10
2023-01-04T18:06:29.736Z,25.58
2023-01-04T18:09:01.140Z,34.85
2023-01-04T18:11:29.095Z,39.97
2023-01-04T18:17:05.674Z,36.97
2023-01-04T18:19:33.161Z,37.00
2023-01-04T18:22:02.202Z,37.00
2023-01-04T18:25:14.619Z,33.22
2023-01-04T18:27:45.835Z,32.92
2023-01-04T18:30:14.209Z,41.22
2023-01-04T18:32:50.731Z,38.03
2023-01-04T18:35:20.073Z,33.38
2023-01-04T18:37:50.381Z,42.30
2023-01-04T18:40:18.068Z,35.60
2023-01-04T18:42:49.738Z,18.58
2023-01-04T18:45:19.477Z,36.33
2023-01-04T18:48:02.881Z,28.85
2023-01-04T18:50:36.978Z,37.45
2023-01-04T18:53:04.371Z,41.83
2023-01-04T18:55:32.064Z,52.53
2023-01-04T18:57:59.956Z,39.65
2023-01-04T19:00:30.010Z,28.10
2023-01-04T19:02:58.065Z,27.52
2023-01-04T19:05:29.174Z,27.60
2023-01-04T19:07:56.690Z,41.97
2023-01-04T19:10:25.664Z,32.58
2023-01-04T19:12:53.258Z,36.88
2023-01-04T19:15:20.834Z,26.02
2023-01-04T19:17:48.125Z,39.35
2023-01-04T19:20:15.722Z,44.20
2023-01-04T19:22:43.165Z,35.35
2023-01-04T19:25:10.527Z,39.38
2023-01-04T19:27:38.100Z,33.42
2023-01-04T19:30:05.948Z,35.28
2023-01-04T19:32:34.073Z,24.23
2023-01-04T19:35:01.855Z,37.30
2023-01-04T19:37:29.655Z,26.30
2023-01-04T19:39:57.071Z,40.83
2023-01-04T19:42:27.396Z,52.00
2023-01-04T19:44:54.831Z,59.22
2023-01-04T19:47:22.293Z,46.17
2023-01-04T19:49:49.863Z,72.57
2023-01-04T19:52:19.587Z,32.50
2023-01-04T19:54:46.909Z,31.45
2023-01-04T19:57:14.372Z,33.65
2023-01-04T19:59:41.902Z,34.92
2023-01-04T20:02:11.838Z,44.58
2023-01-04T20:04:39.472Z,25.50
2023-01-04T20:07:06.891Z,53.88
2023-01-04T20:09:34.509Z,60.67
2023-01-04T20:12:02.209Z,28.67
2023-01-04T20:14:30.280Z,48.53
2023-01-04T20:16:57.686Z,44.97
2023-01-04T20:19:25.542Z,45.40
2023-01-04T20:21:52.926Z,51.72
2023-01-04T20:24:20.414Z,42.72
2023-01-04T20:26:48.080Z,42.47
2023-01-04T20:29:15.658Z,37.25
2023-01-04T20:31:45.800Z,53.90
2023-01-04T20:34:16.821Z,44.15
2023-01-04T20:36:44.374Z,44.83
2023-01-04T20:39:11.849Z,22.00
2023-01-04T20:41:59.557Z,43.97
2023-01-04T20:46:54.342Z,25.63
2023-01-04T20:49:22.001Z,35.33
2023-01-04T20:51:49.611Z,32.20
2023-01-04T20:54:16.994Z,37.42
2023-01-04T20:56:44.434Z,25.95
2023-01-04T20:59:12.175Z,44.60
2023-01-04T21:01:39.709Z,64.75
2023-01-04T21:04:07.255Z,36.20
2023-01-04T21:06:34.939Z,42.25
2023-01-04T21:09:02.636Z,37.55
2023-01-04T21:11:30.137Z,49.45
2023-01-04T21:13:57.544Z,34.88
2023-01-04T21:16:24.983Z,50.80
2023-01-04T21:18:52.253Z,16.65
2023-01-04T21:21:20.289Z,15.00
2023-01-04T21:23:51.726Z,33.10
2023-01-04T21:26:22.075Z,31.23
2023-01-04T21:28:49.722Z,34.40
2023-01-04T21:31:19.821Z,28.38
2023-01-04T21:33:47.718Z,37.97
2023-01-04T21:36:24.347Z,32.47
2023-01-04T21:38:53.792Z,28.70
2023-01-04T21:41:24.805Z,40.15
2023-01-04T21:43:55.009Z,23.30
2023-01-04T21:46:23.426Z,41.55
2023-01-04T21:48:55.334Z,19.88
2023-01-04T21:51:22.777Z,26.25
2023-01-04T21:53:53.896Z,28.63
2023-01-04T21:56:23.270Z,38.72
2023-01-04T21:58:50.871Z,28.13
2023-01-04T22:01:22.066Z,33.45
2023-01-04T22:03:50.387Z,39.03
2023-01-04T22:06:18.906Z,37.72
2023-01-04T22:08:47.080Z,11.20
2023-01-04T22:11:15.853Z,24.98
2023-01-04T22:13:43.727Z,30.52
2023-01-04T22:16:13.556Z,27.58
2023-01-04T22:18:41.590Z,44.63
2023-01-04T22:21:13.587Z,34.50
2023-01-04T22:23:41.358Z,26.83
2023-01-04T22:26:09.077Z,25.23
2023-01-04T22:28:37.473Z,48.78
2023-01-04T22:31:11.140Z,46.00
2023-01-04T22:33:39.633Z,32.63
2023-01-04T22:36:19.031Z,30.45
2023-01-04T22:38:49.213Z,20.48
2023-01-04T22:41:19.045Z,26.20
2023-01-04T22:43:47.117Z,39.53
2023-01-04T22:46:17.540Z,37.42
2023-01-04T22:48:45.989Z,38.58
2023-01-04T22:51:19.217Z,14.98
2023-01-04T22:53:46.628Z,19.05
2023-01-04T22:56:20.080Z,30.55
2023-01-04T22:58:54.880Z,26.35
2023-01-04T23:01:24.230Z,33.05
2023-01-04T23:03:52.208Z,26.50
2023-01-04T23:06:21.466Z,32.03
2023-01-04T23:08:55.517Z,32.85
2023-01-04T23:11:22.898Z,40.50
2023-01-04T23:14:01.640Z,35.65
2023-01-04T23:16:33.528Z,23.77
2023-01-04T23:19:02.634Z,32.65
2023-01-04T23:21:31.095Z,40.10
2023-01-04T23:23:58.622Z,28.10
2023-01-04T23:26:28.049Z,17.27
2023-01-04T23:28:56.210Z,37.55
2023-01-04T23:31:25.809Z,20.20
2023-01-04T23:33:55.467Z,46.85
2023-01-04T23:36:25.770Z,48.53
2023-01-04T23:38:58.053Z,35.88
2023-01-04T23:41:44.505Z,19.77
2023-01-04T23:44:18.180Z,37.25
2023-01-04T23:46:47.140Z,29.40
2023-01-04T23:49:14.490Z,47.35
2023-01-04T23:51:44.862Z,19.52
2023-01-04T23:54:12.319Z,40.35
2023-01-04T23:56:40.246Z,37.92
2023-01-04T23:59:27.850Z,29.40
